Time;durP1;ratioP1;P1;durP2;ratioP2;P2;SDS_P1;SDS_P2;PMS_P1;PMS_P2;Temp;Humidity;BMP_temperature;BMP_pressure;BME280_temperature;BME280_humidity;BME280_pressure;Samples;Min_cycle;Max_cycle;Signal;HPM_P1;HPM_P2
2021/12/12 00:01:32;;;;;;;42.90;17.60;;;;;;;2.62;96.00;97050.40;1738946;81;20969;-76
2021/12/12 00:04:15;;;;;;;45.63;18.32;;;;;;;2.62;95.58;97050.86;1730179;81;20997;-79
2021/12/12 00:06:55;;;;;;;42.30;18.37;;;;;;;2.63;95.37;97057.36;1714833;83;20992;-79
2021/12/12 00:09:33;;;;;;;50.15;20.30;;;;;;;2.64;95.32;97039.92;1720498;83;21619;-76
2021/12/12 00:12:06;;;;;;;44.67;19.32;;;;;;;2.62;95.49;97056.94;1709750;83;21028;-76
2021/12/12 00:14:35;;;;;;;45.55;19.73;;;;;;;2.63;95.45;97047.36;1727315;83;21163;-78
2021/12/12 00:17:06;;;;;;;46.18;19.30;;;;;;;2.63;95.35;97046.05;1731314;81;21032;-77
2021/12/12 00:19:35;;;;;;;48.95;19.75;;;;;;;2.64;95.25;97051.27;1765914;81;21484;-77
2021/12/12 00:22:06;;;;;;;46.25;19.70;;;;;;;2.64;95.13;97043.42;1758783;81;21017;-76
2021/12/12 00:24:34;;;;;;;42.83;18.52;;;;;;;2.64;96.64;97038.19;1737359;81;20988;-76
2021/12/12 00:27:01;;;;;;;48.02;20.52;;;;;;;2.68;96.25;97036.81;1759038;81;21037;-76
2021/12/12 00:29:29;;;;;;;43.48;18.98;;;;;;;2.73;96.68;97037.19;1764494;81;20974;-78
2021/12/12 00:32:00;;;;;;;43.87;19.15;;;;;;;2.74;95.92;97036.30;1764389;81;21021;-77
2021/12/12 00:34:31;;;;;;;40.48;18.52;;;;;;;2.80;97.38;97035.36;1764553;81;21387;-77
2021/12/12 00:36:58;;;;;;;39.23;16.77;;;;;;;2.81;97.07;97033.58;1764389;81;21434;-77
2021/12/12 00:39:29;;;;;;;35.70;16.32;;;;;;;2.82;96.89;97036.19;1764690;81;21422;-77
2021/12/12 00:42:16;;;;;;;40.25;16.65;;;;;;;2.83;96.46;97030.05;1764402;81;21060;-77
2021/12/12 00:44:47;;;;;;;36.38;16.05;;;;;;;2.85;97.23;97032.23;1764531;81;22191;-77
2021/12/12 00:47:15;;;;;;;38.28;15.93;;;;;;;2.87;96.83;97026.52;1764250;81;21022;-77
2021/12/12 00:49:43;;;;;;;35.13;16.42;;;;;;;2.87;97.62;97026.98;1753239;81;20942;-76
2021/12/12 00:52:15;;;;;;;36.45;16.00;;;;;;;2.87;97.17;97023.89;1736128;83;21401;-77
2021/12/12 00:54:44;;;;;;;32.67;14.85;;;;;;;2.90;97.31;97022.55;1742243;82;21383;-78
2021/12/12 00:57:15;;;;;;;32.73;15.55;;;;;;;2.89;97.80;97016.91;1717479;83;21033;-77
2021/12/12 00:59:48;;;;;;;29.48;15.05;;;;;;;2.92;97.26;97018.61;1736186;83;21076;-77
2021/12/12 01:02:17;;;;;;;35.88;16.20;;;;;;;2.97;97.19;97013.30;1735918;82;21010;-77
2021/12/12 01:04:48;;;;;;;31.10;14.87;;;;;;;3.01;97.53;97008.44;1736229;83;21093;-77
2021/12/12 01:07:20;;;;;;;28.50;14.20;;;;;;;2.99;96.85;97007.15;1736271;82;21036;-76
2021/12/12 01:09:55;;;;;;;28.30;14.38;;;;;;;2.98;97.09;96998.87;1737538;82;20969;-77
2021/12/12 01:12:27;;;;;;;30.17;15.53;;;;;;;2.99;97.53;96998.45;1753127;81;21000;-76
2021/12/12 01:14:59;;;;;;;32.33;14.83;;;;;;;2.96;96.86;97006.34;1748128;81;22380;-77
2021/12/12 01:17:37;;;;;;;30.80;15.10;;;;;;;2.92;96.89;96996.36;1755618;81;21445;-77
2021/12/12 01:20:20;;;;;;;28.67;14.93;;;;;;;2.87;97.53;97009.50;1771800;81;21157;-78
2021/12/12 01:22:51;;;;;;;29.12;14.98;;;;;;;2.83;96.94;97004.35;1744988;82;21056;-78
2021/12/12 01:25:26;;;;;;;30.92;15.48;;;;;;;2.79;97.51;97003.53;1744970;82;21004;-78
2021/12/12 01:27:54;;;;;;;31.37;14.87;;;;;;;2.72;97.68;96990.98;1753675;82;21052;-78
2021/12/12 01:30:22;;;;;;;32.93;16.17;;;;;;;2.70;97.45;96984.89;1728267;82;21069;-78
2021/12/12 01:32:51;;;;;;;28.02;13.35;;;;;;;2.66;98.59;96995.00;1719913;83;21538;-78
2021/12/12 01:35:20;;;;;;;29.27;14.75;;;;;;;2.64;97.94;96992.83;1720215;83;21002;-77
2021/12/12 01:40:41;;;;;;;28.98;14.23;;;;;;;2.56;99.16;96992.06;1729634;82;21434;-78
2021/12/12 01:43:21;;;;;;;28.32;13.58;;;;;;;2.52;98.46;96986.02;1756876;82;21131;-78
2021/12/12 01:45:53;;;;;;;26.85;14.00;;;;;;;2.54;97.92;96977.73;1756980;82;20981;-77
2021/12/12 01:48:27;;;;;;;25.25;12.75;;;;;;;2.50;99.72;96980.80;1753569;82;21028;-77
2021/12/12 01:50:59;;;;;;;30.10;14.73;;;;;;;2.49;98.61;96976.47;1739506;82;21017;-76
2021/12/12 01:53:30;;;;;;;27.02;13.48;;;;;;;2.50;98.79;96965.57;1743158;81;21040;-77
2021/12/12 01:56:02;;;;;;;26.10;13.18;;;;;;;2.50;99.38;96965.11;1740188;82;20960;-77
2021/12/12 01:58:33;;;;;;;23.52;12.80;;;;;;;2.47;99.83;96962.98;1725988;82;21129;-76
2021/12/12 02:01:12;;;;;;;28.30;13.75;;;;;;;2.46;99.78;96958.65;1740510;81;21012;-76
2021/12/12 02:03:44;;;;;;;27.77;13.90;;;;;;;2.49;98.87;96956.84;1747786;81;21005;-76
2021/12/12 02:06:15;;;;;;;28.30;13.32;;;;;;;2.55;98.62;96950.67;1691051;84;20966;-76
2021/12/12 02:08:43;;;;;;;26.37;13.18;;;;;;;2.57;99.83;96947.58;1758716;80;20985;-77
2021/12/12 02:11:21;;;;;;;21.70;11.90;;;;;;;2.61;98.53;96953.19;1761933;81;21079;-77
2021/12/12 02:13:52;;;;;;;22.90;11.80;;;;;;;2.63;99.57;96940.94;1757447;81;21002;-77
2021/12/12 02:16:24;;;;;;;21.52;11.93;;;;;;;2.63;99.41;96948.79;1761873;80;21032;-77
2021/12/12 02:18:54;;;;;;;20.90;12.00;;;;;;;2.67;99.04;96941.79;1761331;81;21013;-77
2021/12/12 02:21:29;;;;;;;20.92;11.30;;;;;;;2.70;99.89;96940.88;1732568;81;20997;-77
2021/12/12 02:37:25;;;;;;;18.80;10.55;;;;;;;2.81;99.50;96927.61;1754747;81;21075;-77
2021/12/12 02:39:52;;;;;;;22.50;11.15;;;;;;;2.87;99.44;96931.45;1754700;82;21012;-77
2021/12/12 02:42:21;;;;;;;19.07;10.38;;;;;;;2.94;99.21;96926.99;1754490;82;22178;-77
2021/12/12 02:44:55;;;;;;;20.15;10.48;;;;;;;2.92;99.18;96928.31;1715315;81;20976;-77
2021/12/12 02:47:31;;;;;;;20.72;11.15;;;;;;;2.95;99.02;96919.55;1734409;83;21016;-77
2021/12/12 02:52:22;;;;;;;19.90;10.18;;;;;;;3.08;99.04;96917.16;1734380;83;21063;-78
2021/12/12 02:54:49;;;;;;;19.35;10.25;;;;;;;3.10;99.05;96906.20;1733637;83;21071;-77
2021/12/12 02:57:17;;;;;;;19.70;10.70;;;;;;;3.16;98.91;96906.08;1734717;83;21434;-78
2021/12/12 02:59:50;;;;;;;18.95;10.32;;;;;;;3.18;98.79;96906.06;1735002;83;21460;-78
2021/12/12 03:02:30;;;;;;;17.57;10.20;;;;;;;3.20;98.77;96901.65;1734881;83;21048;-77
2021/12/12 03:05:00;;;;;;;18.60;10.58;;;;;;;3.19;98.90;96895.16;1734802;83;21000;-77
2021/12/12 03:07:27;;;;;;;18.15;10.75;;;;;;;3.19;98.38;96899.92;1734761;83;21426;-77
2021/12/12 03:09:57;;;;;;;16.77;9.33;;;;;;;3.20;98.64;96896.88;1734737;83;21028;-78
2021/12/12 03:12:31;;;;;;;16.90;10.23;;;;;;;3.14;98.42;96898.72;1734578;83;21389;-78
2021/12/12 03:15:02;;;;;;;17.65;9.58;;;;;;;3.11;98.07;96892.67;1735019;83;20996;-77
2021/12/12 03:17:29;;;;;;;16.55;9.60;;;;;;;3.06;97.98;96891.43;1733558;83;21044;-77
2021/12/12 03:20:01;;;;;;;16.17;9.20;;;;;;;3.02;98.74;96891.06;1734754;83;21004;-77
2021/12/12 03:22:28;;;;;;;17.17;9.25;;;;;;;3.01;98.24;96893.27;1725147;83;21485;-77
2021/12/12 03:24:55;;;;;;;16.23;10.50;;;;;;;2.97;98.34;96887.23;1724598;83;21040;-77
2021/12/12 03:27:23;;;;;;;19.55;10.40;;;;;;;2.95;99.19;96885.06;1724930;83;21007;-77
2021/12/12 03:29:52;;;;;;;16.70;10.15;;;;;;;2.95;98.38;96886.84;1725011;83;21021;-77
2021/12/12 03:32:21;;;;;;;18.92;9.83;;;;;;;2.95;98.48;96885.06;1724692;83;21025;-77
2021/12/12 03:34:54;;;;;;;19.25;11.22;;;;;;;2.96;98.65;96880.27;1724686;83;21198;-77
2021/12/12 03:37:25;;;;;;;18.15;10.50;;;;;;;2.98;98.20;96882.84;1724989;83;21061;-77
2021/12/12 03:39:54;;;;;;;14.38;8.70;;;;;;;2.97;98.47;96882.42;1724728;83;21430;-77
2021/12/12 03:42:26;;;;;;;16.42;9.45;;;;;;;2.95;98.19;96890.30;1724814;83;20989;-77
2021/12/12 03:44:56;;;;;;;17.98;9.50;;;;;;;2.95;98.99;96883.75;1724702;83;21494;-77
2021/12/12 03:47:30;;;;;;;16.00;9.05;;;;;;;2.96;98.61;96884.63;1724784;83;20992;-77
2021/12/12 03:50:00;;;;;;;15.55;8.40;;;;;;;2.97;98.93;96886.35;1724718;83;21065;-77
2021/12/12 03:52:28;;;;;;;15.58;9.10;;;;;;;2.99;98.73;96887.20;1724600;83;21035;-77
2021/12/12 03:54:59;;;;;;;13.48;8.38;;;;;;;3.02;98.37;96885.83;1724838;83;21498;-77
2021/12/12 03:57:26;;;;;;;13.53;8.13;;;;;;;3.01;99.33;96890.65;1724801;83;21008;-77
2021/12/12 03:59:53;;;;;;;14.38;8.28;;;;;;;2.98;99.98;96885.02;1724582;83;21028;-77
2021/12/12 04:02:21;;;;;;;13.53;8.18;;;;;;;3.00;98.54;96882.38;1724923;83;21005;-77
2021/12/12 04:04:48;;;;;;;13.40;7.95;;;;;;;2.99;98.33;96884.59;1724814;83;21387;-77
2021/12/12 04:07:20;;;;;;;14.40;8.68;;;;;;;3.00;98.57;96885.84;1724752;83;21434;-77
2021/12/12 04:09:47;;;;;;;11.88;7.40;;;;;;;3.00;98.21;96887.16;1724823;83;21060;-77
2021/12/12 04:12:17;;;;;;;9.00;5.95;;;;;;;3.00;99.31;96874.06;1724788;83;21143;-77
2021/12/12 04:14:47;;;;;;;11.45;6.83;;;;;;;2.98;98.95;96886.33;1724835;83;21018;-77
2021/12/12 04:17:19;;;;;;;11.95;7.17;;;;;;;2.98;98.83;96878.91;1724824;83;21486;-77
2021/12/12 04:19:50;;;;;;;10.98;6.65;;;;;;;2.98;98.67;96878.91;1724889;83;21013;-77
2021/12/12 04:22:18;;;;;;;10.00;6.35;;;;;;;2.98;99.12;96877.17;1724832;82;21017;-77
2021/12/12 04:24:49;;;;;;;9.80;5.92;;;;;;;2.98;99.04;96881.09;1724880;83;21052;-77
2021/12/12 04:27:17;;;;;;;11.75;6.42;;;;;;;2.97;99.20;96877.19;1724081;83;21057;-77
2021/12/12 04:29:48;;;;;;;11.63;6.65;;;;;;;2.96;98.88;96881.58;1724898;83;21079;-77
2021/12/12 04:32:19;;;;;;;13.40;7.55;;;;;;;3.01;98.63;96874.52;1724912;83;21064;-78
2021/12/12 04:34:51;;;;;;;11.90;7.05;;;;;;;3.04;98.38;96870.98;1724836;83;21064;-78
2021/12/12 04:37:19;;;;;;;10.30;5.75;;;;;;;3.04;99.40;96874.44;1724894;83;21033;-77
2021/12/12 04:39:53;;;;;;;8.93;5.50;;;;;;;3.04;99.48;96873.59;1724861;82;21040;-77
2021/12/12 04:42:24;;;;;;;9.63;6.20;;;;;;;3.06;99.60;96869.64;1745250;82;21024;-78
2021/12/12 04:45:08;;;;;;;8.80;5.50;;;;;;;3.11;99.36;96875.66;1711889;84;20999;-77
2021/12/12 04:51:13;;;;;;;6.70;4.75;;;;;;;3.19;99.12;96878.14;1749371;82;21020;-77
2021/12/12 04:53:51;;;;;;;8.85;5.17;;;;;;;3.18;98.89;96879.88;1695460;82;21055;-77
2021/12/12 04:56:41;;;;;;;7.53;5.28;;;;;;;3.22;98.93;96880.25;1738233;82;21031;-78
2021/12/12 04:59:28;;;;;;;7.37;5.33;;;;;;;3.26;99.25;96885.85;1679162;85;21068;-78
2021/12/12 05:02:06;;;;;;;8.73;5.15;;;;;;;3.25;99.38;96888.06;1654732;87;21002;-77
2021/12/12 05:04:44;;;;;;;9.95;5.20;;;;;;;3.24;99.14;96877.14;1654745;87;21036;-77
2021/12/12 05:07:19;;;;;;;8.03;5.40;;;;;;;3.25;99.11;96876.28;1654536;86;21034;-77
2021/12/12 05:09:59;;;;;;;8.48;5.45;;;;;;;3.24;99.18;96882.38;1654591;87;21049;-77
2021/12/12 05:12:37;;;;;;;7.83;5.58;;;;;;;3.27;99.98;96885.38;1679151;85;21117;-78
2021/12/12 05:15:09;;;;;;;8.60;5.22;;;;;;;3.29;99.26;96892.78;1675495;85;21290;-79
2021/12/12 05:17:44;;;;;;;8.15;5.10;;;;;;;3.27;98.67;96882.77;1678691;85;21014;-78
2021/12/12 05:20:18;;;;;;;9.03;5.47;;;;;;;3.23;98.93;96878.47;1679137;85;21069;-77
2021/12/12 05:22:52;;;;;;;9.53;5.28;;;;;;;3.17;98.69;96880.78;1689531;85;21045;-77
2021/12/12 05:25:27;;;;;;;7.83;4.80;;;;;;;3.08;99.93;96891.41;1692704;84;21069;-77
2021/12/12 05:27:56;;;;;;;6.80;4.60;;;;;;;3.01;99.16;96890.22;1691354;85;21522;-77
2021/12/12 05:30:31;;;;;;;8.58;5.25;;;;;;;3.03;99.08;96890.16;1666131;85;21040;-77
2021/12/12 05:33:00;;;;;;;8.23;5.15;;;;;;;3.05;98.90;96892.33;1714849;83;21076;-77
2021/12/12 05:35:32;;;;;;;7.00;4.62;;;;;;;3.02;99.23;96889.32;1721115;82;21073;-77
2021/12/12 05:38:00;;;;;;;7.92;5.15;;;;;;;2.98;99.23;96894.18;1721139;83;21036;-77
2021/12/12 05:40:30;;;;;;;6.50;4.42;;;;;;;2.97;98.61;96888.53;1721116;83;21020;-77
2021/12/12 05:43:00;;;;;;;7.92;4.97;;;;;;;2.91;99.56;96884.72;1721214;82;21056;-77
2021/12/12 05:45:30;;;;;;;8.68;5.25;;;;;;;2.89;99.55;96890.41;1721212;83;21021;-77
2021/12/12 05:47:57;;;;;;;7.22;4.35;;;;;;;2.84;99.40;96891.81;1721124;83;21028;-76
2021/12/12 05:50:26;;;;;;;9.83;5.05;;;;;;;2.77;99.75;96896.27;1721235;83;21067;-77
2021/12/12 05:52:54;;;;;;;7.97;5.08;;;;;;;2.76;100.00;96894.55;1720997;83;21047;-77
2021/12/12 05:55:26;;;;;;;7.58;5.12;;;;;;;2.73;100.00;96893.72;1721181;82;20992;-76
2021/12/12 05:57:55;;;;;;;10.68;5.87;;;;;;;2.76;100.00;96893.67;1720985;83;21028;-77
2021/12/12 06:00:36;;;;;;;8.30;5.33;;;;;;;2.80;99.84;96893.17;1721151;83;21024;-77
2021/12/12 06:03:08;;;;;;;7.35;5.08;;;;;;;2.85;100.00;96895.27;1721156;83;21049;-77
2021/12/12 06:05:35;;;;;;;7.47;4.95;;;;;;;2.86;100.00;96899.17;1721034;83;21049;-77
2021/12/12 06:08:03;;;;;;;7.58;4.75;;;;;;;2.90;100.00;96899.55;1721188;83;21029;-77
2021/12/12 06:10:33;;;;;;;7.17;4.50;;;;;;;2.96;100.00;96899.02;1721184;83;21454;-77
2021/12/12 06:13:00;;;;;;;5.85;4.03;;;;;;;2.98;100.00;96891.56;1720954;83;21072;-77
2021/12/12 06:15:30;;;;;;;6.95;4.33;;;;;;;3.01;99.73;96899.37;1721139;83;20997;-77
2021/12/12 06:17:58;;;;;;;6.65;4.40;;;;;;;3.05;99.71;96900.18;1721221;82;20985;-77
2021/12/12 06:20:28;;;;;;;6.08;4.10;;;;;;;3.08;100.00;96888.36;1721079;82;21028;-77
2021/12/12 06:22:57;;;;;;;6.25;4.58;;;;;;;3.13;100.00;96896.12;1710567;83;21100;-77
2021/12/12 06:25:25;;;;;;;7.25;4.55;;;;;;;3.20;99.98;96899.03;1708081;84;21053;-77
2021/12/12 06:27:53;;;;;;;6.40;4.22;;;;;;;3.27;100.00;96890.63;1707803;83;21026;-77
2021/12/12 06:30:23;;;;;;;6.40;4.53;;;;;;;3.33;99.83;96893.59;1707825;84;21045;-77
2021/12/12 06:32:52;;;;;;;5.65;3.70;;;;;;;3.34;99.94;96897.49;1708079;84;21509;-77
2021/12/12 06:35:20;;;;;;;5.00;3.62;;;;;;;3.32;99.31;96886.16;1707798;84;21130;-77
2021/12/12 06:37:47;;;;;;;4.78;3.60;;;;;;;3.38;99.68;96888.69;1707789;83;21073;-77
2021/12/12 06:40:19;;;;;;;5.90;4.08;;;;;;;3.40;99.64;96891.25;1707709;84;21097;-77
2021/12/12 06:42:48;;;;;;;20.43;12.35;;;;;;;3.40;99.43;96896.06;1708123;84;20990;-77
2021/12/12 06:45:16;;;;;;;9.38;6.40;;;;;;;3.41;99.31;96898.25;1707936;84;20990;-77
2021/12/12 06:47:43;;;;;;;5.62;3.90;;;;;;;3.40;99.44;96896.50;1707897;84;20992;-77
2021/12/12 06:50:10;;;;;;;4.78;3.67;;;;;;;3.38;99.60;96896.55;1707899;84;21596;-77
2021/12/12 06:52:38;;;;;;;4.35;3.12;;;;;;;3.35;99.20;96905.77;1707840;84;21058;-77
2021/12/12 06:55:09;;;;;;;6.37;3.52;;;;;;;3.30;99.02;96901.05;1707862;84;21034;-78
2021/12/12 06:57:37;;;;;;;4.08;3.12;;;;;;;3.28;99.17;96906.31;1708146;83;21046;-77
2021/12/12 07:00:09;;;;;;;6.17;3.77;;;;;;;3.24;99.39;96905.95;1707929;84;21061;-77
2021/12/12 07:02:37;;;;;;;4.75;3.58;;;;;;;3.20;99.15;96904.73;1706293;84;20984;-77
2021/12/12 07:05:06;;;;;;;7.03;4.05;;;;;;;3.16;99.54;96903.47;1707899;84;21027;-78
2021/12/12 07:07:33;;;;;;;4.62;3.65;;;;;;;3.19;99.50;96904.32;1708075;84;21111;-77
2021/12/12 07:10:01;;;;;;;5.25;3.90;;;;;;;3.16;100.00;96906.08;1707785;84;21074;-77
2021/12/12 07:12:28;;;;;;;4.65;3.10;;;;;;;3.14;99.30;96907.00;1707875;84;21023;-77
2021/12/12 07:14:56;;;;;;;5.35;3.72;;;;;;;3.13;99.60;96907.90;1707920;84;21532;-77
2021/12/12 07:17:23;;;;;;;5.95;3.40;;;;;;;3.13;100.00;96910.52;1707864;84;21437;-77
2021/12/12 07:19:51;;;;;;;5.25;3.42;;;;;;;3.11;99.86;96907.08;1707910;84;21456;-77
2021/12/12 07:22:19;;;;;;;6.33;4.37;;;;;;;3.08;100.00;96897.52;1710965;84;21047;-77
2021/12/12 07:24:47;;;;;;;4.95;3.75;;;;;;;3.08;100.00;96902.76;1715748;83;21007;-77
2021/12/12 07:27:16;;;;;;;4.55;3.60;;;;;;;3.07;100.00;96904.93;1715800;83;21016;-77
2021/12/12 07:29:43;;;;;;;5.08;3.70;;;;;;;3.07;100.00;96903.62;1715608;83;21096;-77
2021/12/12 07:32:11;;;;;;;5.35;3.80;;;;;;;3.08;100.00;96905.81;1715858;83;21006;-77
2021/12/12 07:34:38;;;;;;;4.70;3.50;;;;;;;3.08;100.00;96909.73;1715729;83;21050;-77
2021/12/12 07:37:08;;;;;;;4.95;3.90;;;;;;;3.07;100.00;96902.31;1715489;84;21401;-77
2021/12/12 07:39:39;;;;;;;5.67;4.08;;;;;;;3.10;100.00;96910.56;1715618;83;21054;-77
2021/12/12 07:42:07;;;;;;;6.37;4.60;;;;;;;3.15;100.00;96917.45;1715774;83;21010;-77
2021/12/12 07:44:38;;;;;;;7.08;4.78;;;;;;;3.18;100.00;96919.16;1715524;84;21540;-77
2021/12/12 07:47:09;;;;;;;5.78;4.33;;;;;;;3.25;100.00;96924.72;1715775;83;21081;-78
2021/12/12 07:49:40;;;;;;;6.15;4.08;;;;;;;3.28;100.00;96924.64;1715929;83;20988;-77
2021/12/12 07:52:12;;;;;;;4.87;3.40;;;;;;;3.32;100.00;96920.67;1715705;83;21437;-77
2021/12/12 07:54:41;;;;;;;5.05;3.67;;;;;;;3.34;100.00;96930.66;1715781;83;21062;-77
2021/12/12 07:57:08;;;;;;;5.87;4.45;;;;;;;3.41;100.00;96934.45;1715614;83;21063;-78
2021/12/12 07:59:38;;;;;;;7.15;5.05;;;;;;;3.47;100.00;96941.78;1715834;83;21050;-78
2021/12/12 08:02:07;;;;;;;6.20;4.42;;;;;;;3.51;100.00;96941.71;1715847;83;21033;-77
2021/12/12 08:04:35;;;;;;;6.72;4.85;;;;;;;3.59;100.00;96944.19;1687593;84;21035;-78
2021/12/12 08:07:04;;;;;;;7.65;4.83;;;;;;;3.58;100.00;96953.38;1715941;83;20979;-78
2021/12/12 08:09:31;;;;;;;8.38;5.17;;;;;;;3.61;100.00;96947.63;1715679;83;21440;-78
2021/12/12 08:11:59;;;;;;;7.92;5.33;;;;;;;3.64;100.00;96951.52;1715550;83;21443;-77
2021/12/12 08:14:28;;;;;;;8.18;5.50;;;;;;;3.65;100.00;96943.22;1715587;83;21420;-77
2021/12/12 08:16:57;;;;;;;8.73;5.35;;;;;;;3.67;100.00;96942.73;1715714;83;21170;-77
2021/12/12 08:19:26;;;;;;;6.78;5.05;;;;;;;3.67;100.00;96939.68;1715475;83;21006;-77
2021/12/12 08:21:56;;;;;;;9.25;5.65;;;;;;;3.74;100.00;96943.48;1713096;82;21083;-77
2021/12/12 08:24:22;;;;;;;8.50;5.37;;;;;;;3.77;100.00;96925.05;1731600;83;21048;-78
2021/12/12 08:26:49;;;;;;;11.40;5.72;;;;;;;3.80;100.00;96939.42;1731508;82;21089;-78
2021/12/12 08:29:20;;;;;;;9.28;6.30;;;;;;;3.85;100.00;96940.20;1731574;82;21442;-78
2021/12/12 08:31:49;;;;;;;10.50;6.90;;;;;;;3.90;100.00;96942.28;1730204;82;21140;-78
2021/12/12 08:34:16;;;;;;;9.35;5.80;;;;;;;3.92;100.00;96953.61;1712698;83;20961;-77
2021/12/12 08:36:48;;;;;;;10.95;6.60;;;;;;;3.86;100.00;96947.63;1712849;83;20962;-77
2021/12/12 08:39:16;;;;;;;8.95;6.55;;;;;;;3.82;100.00;96950.77;1731523;82;21064;-77
2021/12/12 08:41:47;;;;;;;12.40;7.62;;;;;;;3.81;100.00;96951.19;1731613;82;21020;-77
2021/12/12 08:44:15;;;;;;;11.40;6.97;;;;;;;3.86;100.00;96952.40;1731563;82;21075;-77
2021/12/12 08:46:47;;;;;;;11.63;6.80;;;;;;;3.81;100.00;96947.27;1731436;82;21434;-77
2021/12/12 08:49:17;;;;;;;13.35;8.53;;;;;;;3.80;100.00;96945.98;1731659;82;21001;-77
2021/12/12 08:51:55;;;;;;;15.50;7.90;;;;;;;3.80;100.00;96938.11;1731542;82;21025;-77
2021/12/12 08:54:27;;;;;;;12.90;7.35;;;;;;;3.76;100.00;96941.25;1731523;83;20996;-77
2021/12/12 08:57:06;;;;;;;12.25;7.50;;;;;;;3.75;100.00;96942.58;1731535;82;21056;-77
2021/12/12 08:59:37;;;;;;;11.35;7.22;;;;;;;3.73;100.00;96940.45;1740976;82;21082;-77
2021/12/12 09:02:08;;;;;;;15.15;8.40;;;;;;;3.67;100.00;96943.61;1734138;82;21041;-78
2021/12/12 09:04:43;;;;;;;13.20;7.58;;;;;;;3.70;100.00;96947.92;1730941;82;21030;-78
2021/12/12 09:07:18;;;;;;;13.68;7.95;;;;;;;3.69;100.00;96950.11;1728766;82;21024;-78
2021/12/12 09:09:52;;;;;;;14.93;9.03;;;;;;;3.70;100.00;96955.78;1735803;82;21485;-78
2021/12/12 09:12:24;;;;;;;13.28;7.95;;;;;;;3.72;100.00;96951.37;1732938;82;21051;-78
2021/12/12 09:15:05;;;;;;;13.45;8.43;;;;;;;3.70;100.00;96948.77;1736969;82;20961;-78
2021/12/12 09:17:57;;;;;;;11.83;7.87;;;;;;;3.68;100.00;96945.33;1711992;83;20938;-77
2021/12/12 09:20:34;;;;;;;13.38;8.88;;;;;;;3.68;100.00;96939.21;1731975;82;20997;-78
2021/12/12 09:23:08;;;;;;;15.75;8.90;;;;;;;3.68;100.00;96948.38;1749973;81;20998;-78
2021/12/12 09:25:59;;;;;;;14.60;8.88;;;;;;;3.68;100.00;96945.33;1764012;81;21013;-78
2021/12/12 09:28:59;;;;;;;15.10;8.08;;;;;;;3.68;100.00;96949.69;1764899;80;20969;-78
2021/12/12 09:31:31;;;;;;;14.47;9.20;;;;;;;3.64;100.00;96940.16;1771053;81;21422;-78
2021/12/12 09:34:09;;;;;;;14.40;9.43;;;;;;;3.64;100.00;96950.20;1780811;80;21009;-78
2021/12/12 09:36:46;;;;;;;18.23;9.38;;;;;;;3.64;100.00;96941.47;1771982;80;20972;-78
2021/12/12 09:39:36;;;;;;;14.90;9.35;;;;;;;3.63;100.00;96941.94;1760461;81;21052;-79
2021/12/12 09:42:28;;;;;;;13.10;8.65;;;;;;;3.63;100.00;96939.75;1751550;81;21064;-78
2021/12/12 09:45:20;;;;;;;15.85;9.38;;;;;;;3.64;100.00;96948.02;1759992;81;21123;-78
2021/12/12 09:51:15;;;;;;;15.68;9.98;;;;;;;3.63;100.00;96947.17;1761357;81;21505;-78
2021/12/12 09:54:23;;;;;;;15.68;9.90;;;;;;;3.66;100.00;96950.18;1762162;81;20997;-78
2021/12/12 09:57:04;;;;;;;14.83;10.00;;;;;;;3.70;100.00;96955.32;1754171;81;20977;-78
2021/12/12 10:00:00;;;;;;;17.42;9.40;;;;;;;3.73;100.00;96950.94;1757004;81;20989;-78
2021/12/12 10:02:44;;;;;;;10.20;7.70;;;;;;;3.75;100.00;96955.25;1753423;82;21020;-78
2021/12/12 10:05:28;;;;;;;10.75;7.30;;;;;;;3.78;100.00;96963.03;1751710;81;21103;-77
2021/12/12 10:08:35;;;;;;;14.13;7.03;;;;;;;3.91;100.00;96965.44;1755294;82;21067;-76
2021/12/12 10:11:10;;;;;;;11.90;7.00;;;;;;;4.00;100.00;96969.63;1743362;81;21439;-78
2021/12/12 10:13:48;;;;;;;13.80;7.30;;;;;;;4.07;100.00;96966.00;1742501;82;21454;-78
2021/12/12 10:16:25;;;;;;;13.22;6.90;;;;;;;4.14;100.00;96954.48;1742803;82;21123;-77
2021/12/12 10:19:01;;;;;;;12.58;6.70;;;;;;;4.22;100.00;96955.19;1746171;82;20977;-77
2021/12/12 10:21:34;;;;;;;9.78;6.05;;;;;;;4.29;100.00;96958.98;1748988;81;21061;-77
2021/12/12 10:24:21;;;;;;;10.95;6.35;;;;;;;4.29;100.00;96949.81;1753173;80;20981;-77
2021/12/12 10:27:24;;;;;;;20.92;11.48;;;;;;;4.31;100.00;96957.19;1677333;85;21455;-77
2021/12/12 10:30:11;;;;;;;10.98;6.92;;;;;;;4.38;100.00;96963.17;1693192;84;21458;-77
2021/12/12 10:33:20;;;;;;;9.35;6.37;;;;;;;4.43;100.00;96963.93;1686094;85;21022;-77
2021/12/12 10:35:58;;;;;;;9.38;6.50;;;;;;;4.42;100.00;96963.09;1665100;86;21056;-78
2021/12/12 10:38:46;;;;;;;9.45;6.05;;;;;;;4.49;100.00;96974.31;1686248;84;21543;-77
2021/12/12 10:41:27;;;;;;;12.82;6.90;;;;;;;4.31;99.76;96981.67;1702973;84;21044;-78
2021/12/12 10:44:07;;;;;;;13.60;7.40;;;;;;;4.22;100.00;96981.86;1684681;85;21051;-78
2021/12/12 10:46:39;;;;;;;12.88;7.65;;;;;;;4.19;100.00;96986.72;1713330;83;22219;-77
2021/12/12 10:49:37;;;;;;;13.72;7.62;;;;;;;4.13;100.00;96987.28;1711530;83;21016;-77
2021/12/12 10:52:24;;;;;;;14.53;8.60;;;;;;;4.08;100.00;96976.90;1693214;85;21004;-77
2021/12/12 10:54:59;;;;;;;12.65;7.65;;;;;;;4.07;100.00;96981.27;1708040;83;21066;-77
2021/12/12 10:57:30;;;;;;;11.97;8.25;;;;;;;4.11;100.00;96981.22;1707597;83;21422;-77
2021/12/12 11:00:22;;;;;;;15.58;8.15;;;;;;;4.09;100.00;96994.35;1721693;83;21075;-77
2021/12/12 11:03:21;;;;;;;11.90;7.47;;;;;;;4.12;100.00;96991.69;1722125;83;21002;-78
2021/12/12 11:06:02;;;;;;;12.60;7.35;;;;;;;4.12;100.00;96996.05;1720162;83;21494;-78
2021/12/12 11:08:41;;;;;;;11.25;7.08;;;;;;;4.09;100.00;96996.98;1721933;83;21060;-78
2021/12/12 11:11:13;;;;;;;11.33;7.00;;;;;;;4.11;100.00;97001.73;1720195;82;21083;-78
2021/12/12 11:13:45;;;;;;;9.63;6.65;;;;;;;4.12;100.00;96998.23;1714643;83;21049;-78
2021/12/12 11:16:21;;;;;;;11.05;6.80;;;;;;;4.14;100.00;97001.68;1717035;82;21005;-78
2021/12/12 11:18:53;;;;;;;13.68;7.75;;;;;;;4.13;100.00;97004.33;1718116;82;21113;-78
2021/12/12 11:21:30;;;;;;;10.78;7.03;;;;;;;4.11;100.00;97010.06;1638430;86;21682;-79
2021/12/12 11:24:20;;;;;;;12.93;7.65;;;;;;;4.05;100.00;97009.29;1695577;84;20990;-79
2021/12/12 11:27:10;;;;;;;12.60;8.03;;;;;;;4.05;100.00;97005.79;1697349;84;20995;-79
2021/12/12 11:29:44;;;;;;;14.10;6.97;;;;;;;4.03;100.00;97014.98;1677036;85;21066;-78
2021/12/12 11:32:16;;;;;;;12.00;7.20;;;;;;;4.05;100.00;97009.72;1691956;84;21471;-78
2021/12/12 11:34:48;;;;;;;11.57;7.78;;;;;;;4.06;100.00;97016.25;1701556;84;20983;-78
2021/12/12 11:37:37;;;;;;;13.38;8.05;;;;;;;4.11;100.00;97019.23;1680153;84;21032;-78
2021/12/12 11:40:19;;;;;;;9.33;6.40;;;;;;;4.19;100.00;97022.13;1644801;85;21011;-78
2021/12/12 11:42:54;;;;;;;10.10;6.70;;;;;;;4.22;100.00;97021.20;1717296;82;20985;-78
2021/12/12 11:45:38;;;;;;;10.93;6.80;;;;;;;4.27;100.00;97027.21;1717684;82;21003;-79
2021/12/12 11:48:27;;;;;;;13.85;7.95;;;;;;;4.27;99.98;97023.27;1732650;82;20984;-78
2021/12/12 11:51:07;;;;;;;14.15;7.85;;;;;;;4.39;100.00;97022.17;1746105;82;21021;-78
2021/12/12 11:53:52;;;;;;;15.53;8.93;;;;;;;4.51;100.00;97025.42;1746657;82;21097;-78
2021/12/12 11:56:30;;;;;;;14.25;9.48;;;;;;;4.59;99.83;97027.02;1747110;82;21044;-78
2021/12/12 11:59:36;;;;;;;14.60;8.53;;;;;;;4.67;99.02;97024.66;1716926;82;21052;-79
2021/12/12 12:02:26;;;;;;;12.05;8.43;;;;;;;4.70;98.46;97032.48;1717563;83;21032;-73
2021/12/12 12:05:16;;;;;;;12.50;8.18;;;;;;;4.74;98.35;97040.70;1717443;83;20992;-74
2021/12/12 12:08:03;;;;;;;14.00;8.83;;;;;;;4.76;98.52;97041.52;1698396;83;21044;-74
2021/12/12 12:10:47;;;;;;;14.07;8.88;;;;;;;4.79;98.47;97041.91;1717478;83;21092;-74
2021/12/12 12:13:48;;;;;;;12.30;8.20;;;;;;;4.79;98.19;97038.84;1731249;82;21005;-76
2021/12/12 12:16:50;;;;;;;13.13;8.65;;;;;;;4.77;98.15;97040.61;1747000;82;21047;-73
2021/12/12 12:19:45;;;;;;;16.90;9.23;;;;;;;4.74;98.10;97040.23;1747347;82;21056;-73
2021/12/12 12:22:46;;;;;;;12.20;8.43;;;;;;;4.74;98.46;97046.80;1746369;82;20949;-73
2021/12/12 12:26:50;;;;;;;14.65;9.48;;;;;;;4.77;98.91;97053.74;1737610;82;21030;-74
2021/12/12 12:28:11;;;;;;;14.83;9.53;;;;;;;4.74;98.88;97053.83;1745132;82;20950;-73
2021/12/12 12:31:09;;;;;;;13.03;8.05;;;;;;;4.77;98.78;97062.08;1743012;82;20989;-73